sensor_id;sensor_type;location;lat;lon;timestamp;temperature;humidity
19522;DHT22;9905;52.126;5.596;2024-02-14T00:02:23;8.10;99.90
19522;DHT22;9905;52.126;5.596;2024-02-14T00:04:51;8.10;99.90
19522;DHT22;9905;52.126;5.596;2024-02-14T00:07:18;8.20;99.90
19522;DHT22;9905;52.126;5.596;2024-02-14T00:09:45;8.20;99.90
19522;DHT22;9905;52.126;5.596;2024-02-14T00:12:12;8.20;99.90
19522;DHT22;9905;52.126;5.596;2024-02-14T00:14:40;8.20;99.90
19522;DHT22;9905;52.126;5.596;2024-02-14T00:17:08;8.20;99.90
19522;DHT22;9905;52.126;5.596;2024-02-14T00:19:36;8.20;99.90
19522;DHT22;9905;52.126;5.596;2024-02-14T00:22:03;8.20;99.90
19522;DHT22;9905;52.126;5.596;2024-02-14T00:24:29;8.20;99.90
19522;DHT22;9905;52.126;5.596;2024-02-14T00:26:57;8.30;99.90
19522;DHT22;9905;52.126;5.596;2024-02-14T00:29:26;8.30;99.90
19522;DHT22;9905;52.126;5.596;2024-02-14T00:31:52;8.30;99.90
19522;DHT22;9905;52.126;5.596;2024-02-14T00:34:20;8.30;99.90
19522;DHT22;9905;52.126;5.596;2024-02-14T00:36:47;8.30;99.90
19522;DHT22;9905;52.126;5.596;2024-02-14T00:39:14;8.30;99.90
19522;DHT22;9905;52.126;5.596;2024-02-14T00:41:41;8.30;99.90
19522;DHT22;9905;52.126;5.596;2024-02-14T00:44:08;8.40;99.90
19522;DHT22;9905;52.126;5.596;2024-02-14T00:46:34;8.40;99.90
19522;DHT22;9905;52.126;5.596;2024-02-14T00:49:01;8.40;99.90
19522;DHT22;9905;52.126;5.596;2024-02-14T00:51:29;8.40;99.90
19522;DHT22;9905;52.126;5.596;2024-02-14T00:53:56;8.40;99.90
19522;DHT22;9905;52.126;5.596;2024-02-14T00:56:23;8.50;99.90
19522;DHT22;9905;52.126;5.596;2024-02-14T00:58:49;8.50;99.90
19522;DHT22;9905;52.126;5.596;2024-02-14T01:01:16;8.50;99.90
19522;DHT22;9905;52.126;5.596;2024-02-14T01:03:43;8.50;99.90
19522;DHT22;9905;52.126;5.596;2024-02-14T01:06:10;8.50;99.90
19522;DHT22;9905;52.126;5.596;2024-02-14T01:08:38;8.60;99.90
19522;DHT22;9905;52.126;5.596;2024-02-14T01:11:05;8.60;99.90
19522;DHT22;9905;52.126;5.596;2024-02-14T01:13:31;8.60;99.90
19522;DHT22;9905;52.126;5.596;2024-02-14T01:15:58;8.60;99.90
19522;DHT22;9905;52.126;5.596;2024-02-14T01:18:25;8.70;99.90
19522;DHT22;9905;52.126;5.596;2024-02-14T01:20:52;8.70;99.90
19522;DHT22;9905;52.126;5.596;2024-02-14T01:23:19;8.70;99.90
19522;DHT22;9905;52.126;5.596;2024-02-14T01:25:47;8.70;99.90
19522;DHT22;9905;52.126;5.596;2024-02-14T01:28:15;8.70;99.90
19522;DHT22;9905;52.126;5.596;2024-02-14T01:30:42;8.70;99.90
19522;DHT22;9905;52.126;5.596;2024-02-14T01:33:09;8.70;99.90
19522;DHT22;9905;52.126;5.596;2024-02-14T01:35:36;8.70;99.90
19522;DHT22;9905;52.126;5.596;2024-02-14T01:38:05;8.80;99.90
19522;DHT22;9905;52.126;5.596;2024-02-14T01:40:32;8.80;99.90
19522;DHT22;9905;52.126;5.596;2024-02-14T01:43:00;8.80;99.90
19522;DHT22;9905;52.126;5.596;2024-02-14T01:45:27;8.80;99.90
19522;DHT22;9905;52.126;5.596;2024-02-14T01:47:54;8.90;99.90
19522;DHT22;9905;52.126;5.596;2024-02-14T01:50:21;8.90;99.90
19522;DHT22;9905;52.126;5.596;2024-02-14T01:52:56;8.90;99.90
19522;DHT22;9905;52.126;5.596;2024-02-14T01:55:25;8.90;99.90
19522;DHT22;9905;52.126;5.596;2024-02-14T01:57:54;8.90;99.90
19522;DHT22;9905;52.126;5.596;2024-02-14T02:00:22;9.00;99.90
19522;DHT22;9905;52.126;5.596;2024-02-14T02:02:49;9.00;99.90
19522;DHT22;9905;52.126;5.596;2024-02-14T02:05:16;9.00;99.90
19522;DHT22;9905;52.126;5.596;2024-02-14T02:07:44;9.00;99.90
19522;DHT22;9905;52.126;5.596;2024-02-14T02:10:14;9.10;99.90
19522;DHT22;9905;52.126;5.596;2024-02-14T02:12:40;9.00;99.90
19522;DHT22;9905;52.126;5.596;2024-02-14T02:15:08;9.10;99.90
19522;DHT22;9905;52.126;5.596;2024-02-14T02:17:39;9.10;99.90
19522;DHT22;9905;52.126;5.596;2024-02-14T02:20:07;9.10;99.90
19522;DHT22;9905;52.126;5.596;2024-02-14T02:22:34;9.10;99.90
19522;DHT22;9905;52.126;5.596;2024-02-14T02:25:03;9.10;99.90
19522;DHT22;9905;52.126;5.596;2024-02-14T02:27:32;9.20;99.90
19522;DHT22;9905;52.126;5.596;2024-02-14T02:30:01;9.20;99.90
19522;DHT22;9905;52.126;5.596;2024-02-14T02:32:27;9.20;99.90
19522;DHT22;9905;52.126;5.596;2024-02-14T02:34:54;9.20;99.90
19522;DHT22;9905;52.126;5.596;2024-02-14T02:37:22;9.30;99.90
19522;DHT22;9905;52.126;5.596;2024-02-14T02:39:48;9.20;99.90
19522;DHT22;9905;52.126;5.596;2024-02-14T02:42:18;9.20;99.90
19522;DHT22;9905;52.126;5.596;2024-02-14T02:44:46;9.30;99.90
19522;DHT22;9905;52.126;5.596;2024-02-14T02:47:14;9.30;99.90
19522;DHT22;9905;52.126;5.596;2024-02-14T02:49:42;9.30;99.90
19522;DHT22;9905;52.126;5.596;2024-02-14T02:52:09;9.30;99.90
19522;DHT22;9905;52.126;5.596;2024-02-14T02:54:36;9.30;99.90
19522;DHT22;9905;52.126;5.596;2024-02-14T02:57:06;9.30;99.90
19522;DHT22;9905;52.126;5.596;2024-02-14T02:59:34;9.30;99.90
19522;DHT22;9905;52.126;5.596;2024-02-14T03:02:01;9.30;99.90
19522;DHT22;9905;52.126;5.596;2024-02-14T03:04:28;9.40;99.90
19522;DHT22;9905;52.126;5.596;2024-02-14T03:06:57;9.40;99.90
19522;DHT22;9905;52.126;5.596;2024-02-14T03:09:24;9.40;99.90
19522;DHT22;9905;52.126;5.596;2024-02-14T03:11:53;9.30;99.90
19522;DHT22;9905;52.126;5.596;2024-02-14T03:14:22;9.40;99.90
19522;DHT22;9905;52.126;5.596;2024-02-14T03:16:50;9.40;99.90
19522;DHT22;9905;52.126;5.596;2024-02-14T03:19:17;9.40;99.90
19522;DHT22;9905;52.126;5.596;2024-02-14T03:21:44;9.40;99.90
19522;DHT22;9905;52.126;5.596;2024-02-14T03:24:12;9.40;99.90
19522;DHT22;9905;52.126;5.596;2024-02-14T03:26:39;9.40;99.90
19522;DHT22;9905;52.126;5.596;2024-02-14T03:29:06;9.40;99.90
19522;DHT22;9905;52.126;5.596;2024-02-14T03:31:32;9.40;99.90
19522;DHT22;9905;52.126;5.596;2024-02-14T03:34:01;9.40;99.90
19522;DHT22;9905;52.126;5.596;2024-02-14T03:36:28;9.50;99.90
19522;DHT22;9905;52.126;5.596;2024-02-14T03:38:56;9.50;99.90
19522;DHT22;9905;52.126;5.596;2024-02-14T03:41:23;9.50;99.90
19522;DHT22;9905;52.126;5.596;2024-02-14T03:43:50;9.50;99.90
19522;DHT22;9905;52.126;5.596;2024-02-14T03:46:18;9.50;99.90
19522;DHT22;9905;52.126;5.596;2024-02-14T03:48:46;9.50;99.90
19522;DHT22;9905;52.126;5.596;2024-02-14T03:51:15;9.60;99.90
19522;DHT22;9905;52.126;5.596;2024-02-14T03:53:43;9.60;99.90
19522;DHT22;9905;52.126;5.596;2024-02-14T03:56:09;9.60;99.90
19522;DHT22;9905;52.126;5.596;2024-02-14T03:58:38;9.60;99.90
19522;DHT22;9905;52.126;5.596;2024-02-14T04:01:04;9.60;99.90
19522;DHT22;9905;52.126;5.596;2024-02-14T04:03:31;9.60;99.90
19522;DHT22;9905;52.126;5.596;2024-02-14T04:05:59;9.70;99.90
19522;DHT22;9905;52.126;5.596;2024-02-14T04:08:27;9.70;99.90
19522;DHT22;9905;52.126;5.596;2024-02-14T04:10:55;9.70;99.90
19522;DHT22;9905;52.126;5.596;2024-02-14T04:13:22;9.70;99.90
19522;DHT22;9905;52.126;5.596;2024-02-14T04:15:48;9.80;99.90
19522;DHT22;9905;52.126;5.596;2024-02-14T04:18:15;9.80;99.90
19522;DHT22;9905;52.126;5.596;2024-02-14T04:20:43;9.80;99.90
19522;DHT22;9905;52.126;5.596;2024-02-14T04:23:10;9.90;99.90
19522;DHT22;9905;52.126;5.596;2024-02-14T04:25:38;9.90;99.90
19522;DHT22;9905;52.126;5.596;2024-02-14T04:28:06;9.90;99.90
19522;DHT22;9905;52.126;5.596;2024-02-14T04:30:32;9.90;99.90
19522;DHT22;9905;52.126;5.596;2024-02-14T04:33:01;9.90;99.90
19522;DHT22;9905;52.126;5.596;2024-02-14T04:35:28;10.00;99.90
19522;DHT22;9905;52.126;5.596;2024-02-14T04:37:55;10.00;99.90
19522;DHT22;9905;52.126;5.596;2024-02-14T04:40:22;10.00;99.90
19522;DHT22;9905;52.126;5.596;2024-02-14T04:42:51;10.00;99.90
19522;DHT22;9905;52.126;5.596;2024-02-14T04:45:18;10.00;99.90
19522;DHT22;9905;52.126;5.596;2024-02-14T04:47:44;10.10;99.90
19522;DHT22;9905;52.126;5.596;2024-02-14T04:50:11;10.10;99.90
19522;DHT22;9905;52.126;5.596;2024-02-14T04:52:39;10.10;99.90
19522;DHT22;9905;52.126;5.596;2024-02-14T04:55:07;10.10;99.90
19522;DHT22;9905;52.126;5.596;2024-02-14T04:57:34;10.10;99.90
19522;DHT22;9905;52.126;5.596;2024-02-14T05:00:05;10.10;99.90
19522;DHT22;9905;52.126;5.596;2024-02-14T05:02:32;10.10;99.90
19522;DHT22;9905;52.126;5.596;2024-02-14T05:04:59;10.20;99.90
19522;DHT22;9905;52.126;5.596;2024-02-14T05:07:27;10.20;99.90
19522;DHT22;9905;52.126;5.596;2024-02-14T05:09:53;10.20;99.90
19522;DHT22;9905;52.126;5.596;2024-02-14T05:12:22;10.20;99.90
19522;DHT22;9905;52.126;5.596;2024-02-14T05:14:48;10.20;99.90
19522;DHT22;9905;52.126;5.596;2024-02-14T05:17:17;10.20;99.90
19522;DHT22;9905;52.126;5.596;2024-02-14T05:19:43;10.20;99.90
19522;DHT22;9905;52.126;5.596;2024-02-14T05:22:10;10.20;99.90
19522;DHT22;9905;52.126;5.596;2024-02-14T05:24:37;10.20;99.90
19522;DHT22;9905;52.126;5.596;2024-02-14T05:27:04;10.20;99.90
19522;DHT22;9905;52.126;5.596;2024-02-14T05:29:31;10.20;99.90
19522;DHT22;9905;52.126;5.596;2024-02-14T05:31:58;10.20;99.90
19522;DHT22;9905;52.126;5.596;2024-02-14T05:34:26;10.30;99.90
19522;DHT22;9905;52.126;5.596;2024-02-14T05:36:53;10.20;99.90
19522;DHT22;9905;52.126;5.596;2024-02-14T05:39:20;10.20;99.90
19522;DHT22;9905;52.126;5.596;2024-02-14T05:41:47;10.30;99.90
19522;DHT22;9905;52.126;5.596;2024-02-14T05:44:14;10.30;99.90
19522;DHT22;9905;52.126;5.596;2024-02-14T05:46:41;10.30;99.90
19522;DHT22;9905;52.126;5.596;2024-02-14T05:49:08;10.30;99.90
19522;DHT22;9905;52.126;5.596;2024-02-14T05:51:36;10.30;99.90
19522;DHT22;9905;52.126;5.596;2024-02-14T05:54:03;10.30;99.90
19522;DHT22;9905;52.126;5.596;2024-02-14T05:56:29;10.30;99.90
19522;DHT22;9905;52.126;5.596;2024-02-14T05:58:56;10.30;99.90
19522;DHT22;9905;52.126;5.596;2024-02-14T06:01:23;10.30;99.90
19522;DHT22;9905;52.126;5.596;2024-02-14T06:03:50;10.30;99.90
19522;DHT22;9905;52.126;5.596;2024-02-14T06:06:16;10.30;99.90
19522;DHT22;9905;52.126;5.596;2024-02-14T06:08:44;10.20;99.90
19522;DHT22;9905;52.126;5.596;2024-02-14T06:11:11;10.30;99.90
19522;DHT22;9905;52.126;5.596;2024-02-14T06:13:39;10.20;99.90
19522;DHT22;9905;52.126;5.596;2024-02-14T06:16:06;10.30;99.90
19522;DHT22;9905;52.126;5.596;2024-02-14T06:18:33;10.20;99.90
19522;DHT22;9905;52.126;5.596;2024-02-14T06:21:01;10.20;99.90
19522;DHT22;9905;52.126;5.596;2024-02-14T06:23:27;10.20;99.90
19522;DHT22;9905;52.126;5.596;2024-02-14T06:25:56;10.20;99.90
19522;DHT22;9905;52.126;5.596;2024-02-14T06:28:22;10.20;99.90
19522;DHT22;9905;52.126;5.596;2024-02-14T06:30:49;10.10;99.90
19522;DHT22;9905;52.126;5.596;2024-02-14T06:33:16;10.20;99.90
19522;DHT22;9905;52.126;5.596;2024-02-14T06:35:44;10.20;99.90
19522;DHT22;9905;52.126;5.596;2024-02-14T06:38:11;10.10;99.90
19522;DHT22;9905;52.126;5.596;2024-02-14T06:40:37;10.20;99.90
19522;DHT22;9905;52.126;5.596;2024-02-14T06:43:07;10.20;99.90
19522;DHT22;9905;52.126;5.596;2024-02-14T06:45:33;10.20;99.90
19522;DHT22;9905;52.126;5.596;2024-02-14T06:48:00;10.20;99.90
19522;DHT22;9905;52.126;5.596;2024-02-14T06:50:27;10.20;99.90
19522;DHT22;9905;52.126;5.596;2024-02-14T06:52:54;10.20;99.90
19522;DHT22;9905;52.126;5.596;2024-02-14T06:55:24;10.20;99.90
19522;DHT22;9905;52.126;5.596;2024-02-14T06:57:51;10.20;99.90
19522;DHT22;9905;52.126;5.596;2024-02-14T07:00:20;10.20;99.90
19522;DHT22;9905;52.126;5.596;2024-02-14T07:02:47;10.20;99.90
19522;DHT22;9905;52.126;5.596;2024-02-14T07:05:14;10.20;99.90
19522;DHT22;9905;52.126;5.596;2024-02-14T07:07:40;10.20;99.90
19522;DHT22;9905;52.126;5.596;2024-02-14T07:10:08;10.20;99.90
19522;DHT22;9905;52.126;5.596;2024-02-14T07:12:35;10.20;99.90
19522;DHT22;9905;52.126;5.596;2024-02-14T07:15:01;10.20;99.90
19522;DHT22;9905;52.126;5.596;2024-02-14T07:17:31;10.20;99.90
19522;DHT22;9905;52.126;5.596;2024-02-14T07:19:58;10.20;99.90
19522;DHT22;9905;52.126;5.596;2024-02-14T07:22:25;10.20;99.90
19522;DHT22;9905;52.126;5.596;2024-02-14T07:24:51;10.20;99.90
19522;DHT22;9905;52.126;5.596;2024-02-14T07:27:19;10.20;99.90
19522;DHT22;9905;52.126;5.596;2024-02-14T07:29:47;10.20;99.90
19522;DHT22;9905;52.126;5.596;2024-02-14T07:32:13;10.20;99.90
19522;DHT22;9905;52.126;5.596;2024-02-14T07:34:41;10.30;99.90
19522;DHT22;9905;52.126;5.596;2024-02-14T07:37:09;10.20;99.90
19522;DHT22;9905;52.126;5.596;2024-02-14T07:39:35;10.30;99.90
19522;DHT22;9905;52.126;5.596;2024-02-14T07:42:02;10.30;99.90
19522;DHT22;9905;52.126;5.596;2024-02-14T07:44:29;10.30;99.90
19522;DHT22;9905;52.126;5.596;2024-02-14T07:46:56;10.30;99.90
19522;DHT22;9905;52.126;5.596;2024-02-14T07:49:23;10.30;99.90
19522;DHT22;9905;52.126;5.596;2024-02-14T07:51:51;10.40;99.90
19522;DHT22;9905;52.126;5.596;2024-02-14T07:54:18;10.40;99.90
19522;DHT22;9905;52.126;5.596;2024-02-14T07:56:45;10.40;99.90
19522;DHT22;9905;52.126;5.596;2024-02-14T07:59:12;10.40;99.90
19522;DHT22;9905;52.126;5.596;2024-02-14T08:01:39;10.40;99.90
19522;DHT22;9905;52.126;5.596;2024-02-14T08:04:05;10.40;99.90
19522;DHT22;9905;52.126;5.596;2024-02-14T08:06:32;10.40;99.90
19522;DHT22;9905;52.126;5.596;2024-02-14T08:09:01;10.40;99.90
19522;DHT22;9905;52.126;5.596;2024-02-14T08:11:32;10.40;99.90
19522;DHT22;9905;52.126;5.596;2024-02-14T08:13:58;10.40;99.90
19522;DHT22;9905;52.126;5.596;2024-02-14T08:16:25;10.40;99.90
19522;DHT22;9905;52.126;5.596;2024-02-14T08:18:52;10.50;99.90
19522;DHT22;9905;52.126;5.596;2024-02-14T08:21:24;10.40;99.90
19522;DHT22;9905;52.126;5.596;2024-02-14T08:23:51;10.50;99.90
19522;DHT22;9905;52.126;5.596;2024-02-14T08:26:19;10.40;99.90
19522;DHT22;9905;52.126;5.596;2024-02-14T08:28:45;10.50;99.90
19522;DHT22;9905;52.126;5.596;2024-02-14T08:31:13;10.50;99.90
19522;DHT22;9905;52.126;5.596;2024-02-14T08:33:39;10.60;99.90
19522;DHT22;9905;52.126;5.596;2024-02-14T08:36:07;10.50;99.90
19522;DHT22;9905;52.126;5.596;2024-02-14T08:38:34;10.60;99.90
19522;DHT22;9905;52.126;5.596;2024-02-14T08:41:00;10.60;99.90
19522;DHT22;9905;52.126;5.596;2024-02-14T08:43:29;10.60;99.90
19522;DHT22;9905;52.126;5.596;2024-02-14T08:45:56;10.60;99.90
19522;DHT22;9905;52.126;5.596;2024-02-14T08:48:23;10.60;99.90
19522;DHT22;9905;52.126;5.596;2024-02-14T08:50:52;10.70;99.90
19522;DHT22;9905;52.126;5.596;2024-02-14T08:53:19;10.70;99.90
19522;DHT22;9905;52.126;5.596;2024-02-14T08:55:46;10.70;99.90
19522;DHT22;9905;52.126;5.596;2024-02-14T08:58:13;10.70;99.90
19522;DHT22;9905;52.126;5.596;2024-02-14T09:00:41;10.70;99.90
19522;DHT22;9905;52.126;5.596;2024-02-14T09:03:08;10.70;99.90
19522;DHT22;9905;52.126;5.596;2024-02-14T09:05:34;10.70;99.90
19522;DHT22;9905;52.126;5.596;2024-02-14T09:08:03;10.70;99.90
19522;DHT22;9905;52.126;5.596;2024-02-14T09:10:29;10.70;99.90
19522;DHT22;9905;52.126;5.596;2024-02-14T09:12:56;10.80;99.90
19522;DHT22;9905;52.126;5.596;2024-02-14T09:15:23;10.80;99.90
19522;DHT22;9905;52.126;5.596;2024-02-14T09:17:51;10.80;99.90
19522;DHT22;9905;52.126;5.596;2024-02-14T09:20:18;10.80;99.90
19522;DHT22;9905;52.126;5.596;2024-02-14T09:22:45;10.90;99.90
19522;DHT22;9905;52.126;5.596;2024-02-14T09:25:12;10.90;99.90
19522;DHT22;9905;52.126;5.596;2024-02-14T09:27:39;10.80;99.90
19522;DHT22;9905;52.126;5.596;2024-02-14T09:30:07;10.80;99.90
19522;DHT22;9905;52.126;5.596;2024-02-14T09:32:34;10.80;99.90
19522;DHT22;9905;52.126;5.596;2024-02-14T09:35:02;10.90;99.90
19522;DHT22;9905;52.126;5.596;2024-02-14T09:37:32;10.90;99.90
19522;DHT22;9905;52.126;5.596;2024-02-14T09:39:59;10.90;99.90
19522;DHT22;9905;52.126;5.596;2024-02-14T09:42:32;10.90;99.90
19522;DHT22;9905;52.126;5.596;2024-02-14T09:45:06;10.90;99.90
19522;DHT22;9905;52.126;5.596;2024-02-14T09:47:33;10.90;99.90
19522;DHT22;9905;52.126;5.596;2024-02-14T09:50:03;10.90;99.90
19522;DHT22;9905;52.126;5.596;2024-02-14T09:52:32;10.90;99.90
19522;DHT22;9905;52.126;5.596;2024-02-14T09:55:00;10.90;99.90
19522;DHT22;9905;52.126;5.596;2024-02-14T09:57:29;11.00;99.90
19522;DHT22;9905;52.126;5.596;2024-02-14T09:59:56;11.00;99.90
19522;DHT22;9905;52.126;5.596;2024-02-14T10:02:24;11.00;99.90
19522;DHT22;9905;52.126;5.596;2024-02-14T10:04:51;11.00;99.90
19522;DHT22;9905;52.126;5.596;2024-02-14T10:07:19;11.00;99.90
19522;DHT22;9905;52.126;5.596;2024-02-14T10:09:46;11.00;99.90
19522;DHT22;9905;52.126;5.596;2024-02-14T10:12:14;11.00;99.90
19522;DHT22;9905;52.126;5.596;2024-02-14T10:14:40;11.00;99.90
19522;DHT22;9905;52.126;5.596;2024-02-14T10:17:08;11.00;99.90
19522;DHT22;9905;52.126;5.596;2024-02-14T10:19:35;11.00;99.90
19522;DHT22;9905;52.126;5.596;2024-02-14T10:22:02;11.00;99.90
19522;DHT22;9905;52.126;5.596;2024-02-14T10:24:32;11.00;99.90
19522;DHT22;9905;52.126;5.596;2024-02-14T10:26:59;11.10;99.90
19522;DHT22;9905;52.126;5.596;2024-02-14T10:29:26;11.10;99.90
19522;DHT22;9905;52.126;5.596;2024-02-14T10:31:53;11.10;99.90
19522;DHT22;9905;52.126;5.596;2024-02-14T10:34:24;11.10;99.90
19522;DHT22;9905;52.126;5.596;2024-02-14T10:36:52;11.20;99.90
19522;DHT22;9905;52.126;5.596;2024-02-14T10:39:20;11.20;99.90
19522;DHT22;9905;52.126;5.596;2024-02-14T10:41:49;11.20;99.90
19522;DHT22;9905;52.126;5.596;2024-02-14T10:44:16;11.20;99.90
19522;DHT22;9905;52.126;5.596;2024-02-14T10:46:44;11.20;99.90
19522;DHT22;9905;52.126;5.596;2024-02-14T10:49:14;11.20;99.90
19522;DHT22;9905;52.126;5.596;2024-02-14T10:51:43;11.20;99.90
19522;DHT22;9905;52.126;5.596;2024-02-14T10:54:14;11.30;99.90
19522;DHT22;9905;52.126;5.596;2024-02-14T10:56:47;11.30;99.90
19522;DHT22;9905;52.126;5.596;2024-02-14T10:59:18;11.30;99.90
19522;DHT22;9905;52.126;5.596;2024-02-14T11:01:46;11.40;99.90
19522;DHT22;9905;52.126;5.596;2024-02-14T11:04:14;11.40;99.90
19522;DHT22;9905;52.126;5.596;2024-02-14T11:06:46;11.40;99.90
19522;DHT22;9905;52.126;5.596;2024-02-14T11:09:14;11.50;99.90
19522;DHT22;9905;52.126;5.596;2024-02-14T11:11:42;11.50;99.90
19522;DHT22;9905;52.126;5.596;2024-02-14T11:14:09;11.50;99.90
19522;DHT22;9905;52.126;5.596;2024-02-14T11:16:39;11.50;99.90
19522;DHT22;9905;52.126;5.596;2024-02-14T11:19:11;11.60;99.90
19522;DHT22;9905;52.126;5.596;2024-02-14T11:21:40;11.50;99.90
19522;DHT22;9905;52.126;5.596;2024-02-14T11:24:10;11.60;99.90
19522;DHT22;9905;52.126;5.596;2024-02-14T11:26:39;11.60;99.90
19522;DHT22;9905;52.126;5.596;2024-02-14T11:29:06;11.60;99.90
19522;DHT22;9905;52.126;5.596;2024-02-14T11:31:33;11.60;99.90
19522;DHT22;9905;52.126;5.596;2024-02-14T11:34:04;11.60;99.90
19522;DHT22;9905;52.126;5.596;2024-02-14T11:36:32;11.60;99.90
19522;DHT22;9905;52.126;5.596;2024-02-14T11:38:58;11.60;99.90
19522;DHT22;9905;52.126;5.596;2024-02-14T11:41:28;11.60;99.90
19522;DHT22;9905;52.126;5.596;2024-02-14T11:43:55;11.60;99.90
19522;DHT22;9905;52.126;5.596;2024-02-14T11:46:23;11.60;99.90
19522;DHT22;9905;52.126;5.596;2024-02-14T11:48:54;11.70;99.90
19522;DHT22;9905;52.126;5.596;2024-02-14T11:51:23;11.70;99.90
19522;DHT22;9905;52.126;5.596;2024-02-14T11:53:50;11.70;99.90
19522;DHT22;9905;52.126;5.596;2024-02-14T11:56:17;11.60;99.90
19522;DHT22;9905;52.126;5.596;2024-02-14T11:58:45;11.60;99.90
19522;DHT22;9905;52.126;5.596;2024-02-14T12:01:14;11.60;99.90
19522;DHT22;9905;52.126;5.596;2024-02-14T12:03:40;11.60;99.90
19522;DHT22;9905;52.126;5.596;2024-02-14T12:06:07;11.70;99.90
19522;DHT22;9905;52.126;5.596;2024-02-14T12:08:35;11.60;99.90
19522;DHT22;9905;52.126;5.596;2024-02-14T12:11:03;11.70;99.90
19522;DHT22;9905;52.126;5.596;2024-02-14T12:13:30;11.70;99.90
19522;DHT22;9905;52.126;5.596;2024-02-14T12:16:00;11.70;99.90
19522;DHT22;9905;52.126;5.596;2024-02-14T12:18:26;11.70;99.90
19522;DHT22;9905;52.126;5.596;2024-02-14T12:21:03;11.70;99.90
19522;DHT22;9905;52.126;5.596;2024-02-14T12:23:34;11.70;99.90
19522;DHT22;9905;52.126;5.596;2024-02-14T12:26:02;11.70;99.90
19522;DHT22;9905;52.126;5.596;2024-02-14T12:28:30;11.70;99.90
19522;DHT22;9905;52.126;5.596;2024-02-14T12:30:58;11.80;99.90
19522;DHT22;9905;52.126;5.596;2024-02-14T12:33:25;11.80;99.90
19522;DHT22;9905;52.126;5.596;2024-02-14T12:35:54;11.80;99.90
19522;DHT22;9905;52.126;5.596;2024-02-14T12:38:22;11.80;99.90
19522;DHT22;9905;52.126;5.596;2024-02-14T12:40:51;11.80;99.90
19522;DHT22;9905;52.126;5.596;2024-02-14T12:43:19;11.80;99.90
19522;DHT22;9905;52.126;5.596;2024-02-14T12:45:46;11.80;99.90
19522;DHT22;9905;52.126;5.596;2024-02-14T12:48:13;11.80;99.90
19522;DHT22;9905;52.126;5.596;2024-02-14T12:50:40;11.80;99.90
19522;DHT22;9905;52.126;5.596;2024-02-14T12:53:13;11.80;99.90
19522;DHT22;9905;52.126;5.596;2024-02-14T12:55:40;11.80;99.90
19522;DHT22;9905;52.126;5.596;2024-02-14T12:58:08;11.80;99.90
19522;DHT22;9905;52.126;5.596;2024-02-14T13:00:35;11.80;99.90
19522;DHT22;9905;52.126;5.596;2024-02-14T13:03:03;11.80;99.90
19522;DHT22;9905;52.126;5.596;2024-02-14T13:05:30;11.80;99.90
19522;DHT22;9905;52.126;5.596;2024-02-14T13:07:57;11.80;99.90
19522;DHT22;9905;52.126;5.596;2024-02-14T13:10:24;11.80;99.90
19522;DHT22;9905;52.126;5.596;2024-02-14T13:12:51;11.80;99.90
19522;DHT22;9905;52.126;5.596;2024-02-14T13:15:19;11.80;99.90
19522;DHT22;9905;52.126;5.596;2024-02-14T13:17:46;11.80;99.90
19522;DHT22;9905;52.126;5.596;2024-02-14T13:20:13;11.80;99.90
19522;DHT22;9905;52.126;5.596;2024-02-14T13:22:40;11.80;99.90
19522;DHT22;9905;52.126;5.596;2024-02-14T13:25:07;11.80;99.90
19522;DHT22;9905;52.126;5.596;2024-02-14T13:27:34;11.80;99.90
19522;DHT22;9905;52.126;5.596;2024-02-14T13:30:01;11.80;99.90
19522;DHT22;9905;52.126;5.596;2024-02-14T13:32:29;11.80;99.90
19522;DHT22;9905;52.126;5.596;2024-02-14T13:34:56;11.80;99.90
19522;DHT22;9905;52.126;5.596;2024-02-14T13:37:23;11.80;99.90
19522;DHT22;9905;52.126;5.596;2024-02-14T13:39:50;11.80;99.90
19522;DHT22;9905;52.126;5.596;2024-02-14T13:42:17;11.80;99.90
19522;DHT22;9905;52.126;5.596;2024-02-14T13:44:43;11.80;99.90
19522;DHT22;9905;52.126;5.596;2024-02-14T13:47:10;11.90;99.90
19522;DHT22;9905;52.126;5.596;2024-02-14T13:49:38;11.90;99.90
19522;DHT22;9905;52.126;5.596;2024-02-14T13:52:05;11.90;99.90
19522;DHT22;9905;52.126;5.596;2024-02-14T13:54:32;11.90;99.90
19522;DHT22;9905;52.126;5.596;2024-02-14T13:56:58;11.90;99.90
19522;DHT22;9905;52.126;5.596;2024-02-14T13:59:25;11.90;99.90
19522;DHT22;9905;52.126;5.596;2024-02-14T14:01:52;11.90;99.90
19522;DHT22;9905;52.126;5.596;2024-02-14T14:04:19;11.90;99.90
19522;DHT22;9905;52.126;5.596;2024-02-14T14:06:47;11.90;99.90
19522;DHT22;9905;52.126;5.596;2024-02-14T14:09:14;11.90;99.90
19522;DHT22;9905;52.126;5.596;2024-02-14T14:11:41;11.90;99.90
19522;DHT22;9905;52.126;5.596;2024-02-14T14:14:07;12.00;99.90
19522;DHT22;9905;52.126;5.596;2024-02-14T14:16:37;11.90;99.90
19522;DHT22;9905;52.126;5.596;2024-02-14T14:19:03;12.00;99.90
19522;DHT22;9905;52.126;5.596;2024-02-14T14:21:30;11.90;99.90
19522;DHT22;9905;52.126;5.596;2024-02-14T14:23:58;12.00;99.90
19522;DHT22;9905;52.126;5.596;2024-02-14T14:26:25;12.00;99.90
19522;DHT22;9905;52.126;5.596;2024-02-14T14:28:52;12.00;99.90
19522;DHT22;9905;52.126;5.596;2024-02-14T14:31:19;12.00;99.90
19522;DHT22;9905;52.126;5.596;2024-02-14T14:33:46;12.00;99.90
19522;DHT22;9905;52.126;5.596;2024-02-14T14:36:14;12.00;99.90
19522;DHT22;9905;52.126;5.596;2024-02-14T14:38:41;12.00;99.90
19522;DHT22;9905;52.126;5.596;2024-02-14T14:41:09;12.00;99.90
19522;DHT22;9905;52.126;5.596;2024-02-14T14:43:36;12.00;99.90
19522;DHT22;9905;52.126;5.596;2024-02-14T14:46:02;12.00;99.90
19522;DHT22;9905;52.126;5.596;2024-02-14T14:48:29;12.00;99.90
19522;DHT22;9905;52.126;5.596;2024-02-14T14:50:56;12.00;99.90
19522;DHT22;9905;52.126;5.596;2024-02-14T14:53:23;12.00;99.90
19522;DHT22;9905;52.126;5.596;2024-02-14T14:55:51;12.00;99.90
19522;DHT22;9905;52.126;5.596;2024-02-14T14:58:19;12.10;99.90
19522;DHT22;9905;52.126;5.596;2024-02-14T15:00:46;12.10;99.90
19522;DHT22;9905;52.126;5.596;2024-02-14T15:03:13;12.10;99.90
19522;DHT22;9905;52.126;5.596;2024-02-14T15:05:40;12.10;99.90
19522;DHT22;9905;52.126;5.596;2024-02-14T15:08:07;12.10;99.90
19522;DHT22;9905;52.126;5.596;2024-02-14T15:10:34;12.10;99.90
19522;DHT22;9905;52.126;5.596;2024-02-14T15:13:04;12.10;99.90
19522;DHT22;9905;52.126;5.596;2024-02-14T15:15:32;12.20;99.90
19522;DHT22;9905;52.126;5.596;2024-02-14T15:17:59;12.20;99.90
19522;DHT22;9905;52.126;5.596;2024-02-14T15:20:26;12.10;99.90
19522;DHT22;9905;52.126;5.596;2024-02-14T15:22:53;12.20;99.90
19522;DHT22;9905;52.126;5.596;2024-02-14T15:25:20;12.20;99.90
19522;DHT22;9905;52.126;5.596;2024-02-14T15:27:47;12.20;99.90
19522;DHT22;9905;52.126;5.596;2024-02-14T15:30:20;12.20;99.90
19522;DHT22;9905;52.126;5.596;2024-02-14T15:33:05;12.20;99.90
19522;DHT22;9905;52.126;5.596;2024-02-14T15:35:48;12.20;99.90
19522;DHT22;9905;52.126;5.596;2024-02-14T15:38:15;12.20;99.90
19522;DHT22;9905;52.126;5.596;2024-02-14T15:40:44;12.20;99.90
19522;DHT22;9905;52.126;5.596;2024-02-14T15:43:11;12.20;99.90
19522;DHT22;9905;52.126;5.596;2024-02-14T15:45:38;12.20;99.90
19522;DHT22;9905;52.126;5.596;2024-02-14T15:48:06;12.20;99.90
19522;DHT22;9905;52.126;5.596;2024-02-14T15:50:33;12.20;99.90
19522;DHT22;9905;52.126;5.596;2024-02-14T15:53:01;12.20;99.90